Xambioa, Brazil
Current Conditions -  °F | °C
As of 1:00 AM on Sunday 21 Dec 2014 (Local Time) from SBMA Reporting Station
Clear Clear  
Wind Chill: 77°   Ceiling: Unl
Heat Index: 78°   Visibility: 5mi
Dew Point: 75°   Wind: 2mph
Humidity: 94%   Direction: 250°WSW
Pressure: 29.85"   Gusts: NA
Location:  6.41°S, 48.54°W
Report Text: SBMA 210400Z 25002KT 8000 NSC 25/24 Q1011
Loading
Personal Weather Stations






























Interactive Weather Map New forecast layout! Learn more

10-Day Weather Forecast

Advertisements
Track Severe Weather on mobile